createdAt,value
2018-04-13T00:00:46.919Z,95.70
2018-04-13T00:03:15.185Z,95.70
2018-04-13T00:08:16.615Z,95.50
2018-04-13T00:10:44.228Z,95.30
2018-04-13T00:13:12.507Z,95.90
2018-04-13T00:15:40.006Z,95.90
2018-04-13T00:18:07.487Z,96.40
2018-04-13T00:20:35.155Z,97.20
2018-04-13T00:23:02.718Z,97.50
2018-04-13T00:25:31.034Z,97.40
2018-04-13T00:27:58.517Z,97.30
2018-04-13T00:30:26.042Z,97.00
2018-04-13T00:32:53.551Z,96.50
2018-04-13T00:35:21.036Z,96.20
2018-04-13T00:37:49.330Z,95.80
2018-04-13T00:40:16.824Z,95.80
2018-04-13T00:42:45.083Z,95.20
2018-04-13T00:45:12.601Z,95.20
2018-04-13T00:47:40.847Z,96.50
2018-04-13T00:50:08.356Z,96.40
2018-04-13T00:52:36.111Z,96.50
2018-04-13T00:55:03.601Z,95.80
2018-04-13T00:57:31.117Z,95.30
2018-04-13T00:59:59.421Z,95.40
2018-04-13T01:05:01.552Z,95.50
2018-04-13T01:07:29.058Z,95.50
2018-04-13T01:09:56.571Z,95.80
2018-04-13T01:12:24.049Z,95.10
2018-04-13T01:14:52.331Z,95.50
2018-04-13T01:17:19.805Z,95.40
2018-04-13T01:19:47.313Z,95.60
2018-04-13T01:22:14.792Z,96.00
2018-04-13T01:24:43.085Z,96.60
2018-04-13T01:27:10.565Z,96.60
2018-04-13T01:29:38.059Z,95.70
2018-04-13T01:32:05.578Z,95.70
2018-04-13T01:34:33.074Z,95.90
2018-04-13T01:37:00.574Z,96.60
2018-04-13T01:39:28.085Z,97.40
2018-04-13T01:41:55.610Z,98.00
2018-04-13T01:44:23.098Z,98.10
2018-04-13T01:46:50.600Z,97.30
2018-04-13T01:49:18.859Z,96.30
2018-04-13T01:51:47.144Z,96.30
2018-04-13T01:54:14.644Z,96.40
2018-04-13T01:56:42.150Z,96.50
2018-04-13T01:59:10.430Z,97.30
2018-04-13T02:01:37.925Z,97.20
2018-04-13T02:04:05.436Z,97.80
2018-04-13T02:06:33.677Z,97.70
2018-04-13T02:09:01.239Z,97.70
2018-04-13T02:11:28.757Z,98.40
2018-04-13T02:13:56.248Z,97.80
2018-04-13T02:16:23.730Z,98.30
2018-04-13T02:18:51.254Z,98.50
2018-04-13T02:21:18.724Z,99.10
2018-04-13T02:23:46.267Z,98.70
2018-04-13T02:26:14.229Z,99.10
2018-04-13T02:28:41.724Z,99.00
2018-04-13T02:31:09.262Z,98.90
2018-04-13T02:33:36.742Z,99.50
2018-04-13T02:38:38.115Z,99.40
2018-04-13T02:41:06.357Z,99.90
2018-04-13T02:43:33.858Z,99.90
2018-04-13T02:46:02.113Z,99.50
2018-04-13T02:48:30.387Z,99.30
2018-04-13T02:50:57.856Z,99.30
2018-04-13T02:53:26.164Z,98.90
2018-04-13T02:55:53.684Z,98.90
2018-04-13T02:58:21.934Z,99.10
2018-04-13T03:00:49.440Z,99.00
2018-04-13T03:03:17.073Z,99.40
2018-04-13T03:05:45.344Z,99.60
2018-04-13T03:08:12.823Z,99.50
2018-04-13T03:10:41.111Z,99.60
2018-04-13T03:13:08.601Z,99.60
2018-04-13T03:15:36.100Z,99.80
2018-04-13T03:18:04.374Z,99.50
2018-04-13T03:20:31.839Z,99.50
2018-04-13T03:23:00.106Z,99.60
2018-04-13T03:25:27.583Z,99.60
2018-04-13T03:27:55.110Z,99.90
2018-04-13T03:30:22.627Z,99.90
2018-04-13T03:32:50.107Z,99.90
2018-04-13T03:35:17.638Z,99.90
2018-04-13T03:37:45.126Z,99.90
2018-04-13T03:40:12.607Z,99.90
2018-04-13T03:42:40.886Z,99.90
2018-04-13T03:45:09.137Z,99.90
2018-04-13T03:47:36.637Z,99.90
2018-04-13T03:50:04.138Z,99.90
2018-04-13T03:52:31.655Z,99.90
2018-04-13T03:54:59.121Z,99.90
2018-04-13T03:57:26.631Z,99.90
2018-04-13T03:59:54.119Z,99.90
2018-04-13T04:02:21.608Z,99.90
2018-04-13T04:04:49.254Z,99.90
2018-04-13T04:07:16.778Z,99.90
2018-04-13T04:09:45.035Z,99.90
2018-04-13T04:12:12.523Z,99.90
2018-04-13T04:14:40.094Z,99.90
2018-04-13T04:17:07.621Z,99.90
2018-04-13T04:19:47.806Z,99.90
2018-04-13T04:22:26.901Z,99.90
2018-04-13T04:25:06.418Z,99.90
2018-04-13T04:27:33.925Z,99.90
2018-04-13T04:30:01.438Z,99.90
2018-04-13T04:32:28.921Z,99.90
2018-04-13T04:34:57.201Z,96.60
2018-04-13T04:37:25.500Z,95.00
2018-04-13T04:39:52.982Z,94.90
2018-04-13T04:42:20.512Z,95.10
2018-04-13T04:44:48.062Z,95.60
2018-04-13T04:47:16.335Z,95.60
2018-04-13T04:49:43.832Z,95.60
2018-04-13T04:52:11.355Z,95.70
2018-04-13T04:54:38.856Z,95.10
2018-04-13T04:57:06.399Z,95.10
2018-04-13T04:59:33.892Z,93.90
2018-04-13T05:02:01.575Z,94.00
2018-04-13T05:04:29.205Z,93.70
2018-04-13T05:06:56.714Z,93.90
2018-04-13T05:09:24.983Z,93.50
2018-04-13T05:11:52.533Z,93.50
2018-04-13T05:14:20.017Z,93.00
2018-04-13T05:16:47.522Z,92.60
2018-04-13T05:19:15.011Z,92.20
2018-04-13T05:21:43.277Z,92.60
2018-04-13T05:24:11.581Z,92.20
2018-04-13T05:26:39.097Z,92.10
2018-04-13T05:29:06.574Z,91.60
2018-04-13T05:31:34.843Z,91.40
2018-04-13T05:34:03.095Z,91.10
2018-04-13T05:36:30.598Z,91.10
2018-04-13T05:38:58.145Z,90.90
2018-04-13T05:41:25.643Z,91.10
2018-04-13T05:43:53.136Z,90.90
2018-04-13T05:46:21.219Z,91.00
2018-04-13T05:48:49.490Z,90.50
2018-04-13T05:51:17.766Z,90.10
2018-04-13T05:53:46.026Z,89.70
2018-04-13T05:56:13.530Z,89.50
2018-04-13T05:58:41.102Z,89.30
2018-04-13T06:01:08.595Z,88.40
2018-04-13T06:03:36.086Z,88.90
2018-04-13T06:06:04.405Z,88.10
2018-04-13T06:08:31.858Z,88.10
2018-04-13T06:10:59.368Z,87.80
2018-04-13T06:13:27.646Z,86.60
2018-04-13T06:15:55.922Z,86.50
2018-04-13T06:18:24.182Z,86.10
2018-04-13T06:20:52.443Z,86.40
2018-04-13T06:23:19.958Z,86.40
2018-04-13T06:25:47.456Z,86.90
2018-04-13T06:28:14.973Z,85.50
2018-04-13T06:30:42.466Z,85.50
2018-04-13T06:33:09.992Z,84.80
2018-04-13T06:35:37.516Z,85.10
2018-04-13T06:38:05.762Z,84.60
2018-04-13T06:40:33.247Z,84.50
2018-04-13T06:43:01.526Z,83.00
2018-04-13T06:45:29.811Z,82.50
2018-04-13T06:47:57.297Z,82.30
2018-04-13T06:50:24.789Z,81.20
2018-04-13T06:52:52.349Z,81.40
2018-04-13T06:55:19.868Z,80.20
2018-04-13T06:57:47.362Z,80.40
2018-04-13T07:00:15.145Z,80.50
2018-04-13T07:02:43.425Z,80.00
2018-04-13T07:05:11.691Z,80.50
2018-04-13T07:07:39.958Z,80.70
2018-04-13T07:10:07.458Z,80.80
2018-04-13T07:12:34.953Z,80.90
2018-04-13T07:15:03.195Z,80.80
2018-04-13T07:17:30.708Z,80.80
2018-04-13T07:19:58.186Z,81.10
2018-04-13T07:22:26.438Z,81.50
2018-04-13T07:24:53.971Z,81.50
2018-04-13T07:27:21.453Z,81.20
2018-04-13T07:29:48.956Z,81.40
2018-04-13T07:32:16.474Z,81.20
2018-04-13T07:34:44.753Z,80.50
2018-04-13T07:37:13.021Z,80.50
2018-04-13T07:39:40.497Z,80.50
2018-04-13T07:42:08.769Z,80.80
2018-04-13T07:44:37.062Z,81.50
2018-04-13T07:47:04.579Z,81.50
2018-04-13T07:49:32.067Z,81.30
2018-04-13T07:52:00.373Z,80.10
2018-04-13T07:54:27.841Z,80.10
2018-04-13T07:56:55.329Z,80.30
2018-04-13T07:59:22.857Z,79.80
2018-04-13T08:01:50.443Z,82.10
2018-04-13T08:04:17.941Z,82.40
2018-04-13T08:06:45.452Z,80.30
2018-04-13T08:09:13.085Z,80.40
2018-04-13T08:11:41.190Z,79.90
2018-04-13T08:14:08.691Z,79.80
2018-04-13T08:16:36.209Z,80.40
2018-04-13T08:19:03.728Z,80.20
2018-04-13T08:21:31.229Z,80.40
2018-04-13T08:23:58.745Z,80.70
2018-04-13T08:26:26.669Z,80.60
2018-04-13T08:28:54.915Z,81.30
2018-04-13T08:31:22.406Z,81.20
2018-04-13T08:33:50.679Z,81.60
2018-04-13T08:36:18.960Z,82.80
2018-04-13T08:38:47.210Z,83.00
2018-04-13T08:41:14.697Z,83.00
2018-04-13T08:43:42.214Z,83.40
2018-04-13T08:46:09.896Z,83.40
2018-04-13T08:48:38.186Z,83.40
2018-04-13T08:51:05.675Z,83.30
2018-04-13T08:53:33.186Z,84.20
2018-04-13T08:56:01.519Z,84.30
2018-04-13T08:58:29.103Z,84.30
2018-04-13T09:00:56.640Z,84.10
2018-04-13T09:03:24.128Z,85.10
2018-04-13T09:05:51.647Z,85.60
2018-04-13T09:08:19.139Z,85.70
2018-04-13T09:10:46.659Z,86.50
2018-04-13T09:13:14.149Z,86.90
2018-04-13T09:15:41.626Z,86.90
2018-04-13T09:18:09.906Z,87.80
2018-04-13T09:20:38.230Z,88.30
2018-04-13T09:23:05.708Z,88.10
2018-04-13T09:25:33.188Z,88.90
2018-04-13T09:28:00.715Z,89.40
2018-04-13T09:30:28.234Z,90.70
2018-04-13T09:32:55.752Z,92.30
2018-04-13T09:35:23.234Z,93.70
2018-04-13T09:37:51.496Z,94.60
2018-04-13T09:40:19.773Z,97.20
2018-04-13T09:42:48.024Z,98.20
2018-04-13T09:45:15.524Z,98.30
2018-04-13T09:47:43.013Z,99.80
2018-04-13T09:50:10.510Z,99.90
2018-04-13T09:52:38.033Z,99.90
2018-04-13T09:55:05.523Z,99.90
2018-04-13T09:57:33.039Z,99.90
2018-04-13T10:00:00.516Z,99.90
2018-04-13T10:02:33.588Z,99.90
2018-04-13T10:05:01.073Z,99.90
2018-04-13T10:07:29.406Z,99.90
2018-04-13T10:09:56.896Z,99.90
2018-04-13T10:12:24.397Z,99.90
2018-04-13T10:14:52.680Z,99.90
2018-04-13T10:17:20.178Z,99.90
2018-04-13T10:19:47.754Z,99.90
2018-04-13T10:22:15.260Z,99.90
2018-04-13T10:24:42.765Z,99.10
2018-04-13T10:27:10.289Z,96.10
2018-04-13T10:29:37.776Z,95.50
2018-04-13T10:32:05.298Z,93.70
2018-04-13T10:34:32.788Z,93.10
2018-04-13T10:37:00.304Z,91.20
2018-04-13T10:39:27.813Z,89.00
2018-04-13T10:41:55.330Z,89.10
2018-04-13T10:44:22.912Z,85.80
2018-04-13T10:46:50.576Z,83.00
2018-04-13T10:49:18.059Z,77.70
2018-04-13T10:51:46.349Z,78.50
2018-04-13T10:54:14.600Z,77.80
2018-04-13T10:56:42.160Z,77.80
2018-04-13T10:59:09.642Z,71.70
2018-04-13T11:01:37.888Z,71.60
2018-04-13T11:04:05.433Z,72.40
2018-04-13T11:06:32.915Z,74.40
2018-04-13T11:09:01.175Z,69.20
2018-04-13T11:11:28.685Z,69.20
2018-04-13T11:13:56.195Z,72.00
2018-04-13T11:16:23.681Z,70.90
2018-04-13T11:18:51.920Z,69.80
2018-04-13T11:21:19.421Z,69.70
2018-04-13T11:23:46.897Z,69.20
2018-04-13T11:26:14.417Z,64.00
2018-04-13T11:28:41.916Z,64.90
2018-04-13T11:31:09.402Z,62.10
2018-04-13T11:33:36.925Z,62.20
2018-04-13T11:36:04.655Z,64.30
2018-04-13T11:38:32.955Z,61.20
2018-04-13T11:41:00.439Z,61.20
2018-04-13T11:43:27.950Z,60.00
2018-04-13T11:45:56.228Z,60.10
2018-04-13T11:48:24.524Z,62.30
2018-04-13T11:50:52.023Z,62.10
2018-04-13T11:53:19.492Z,60.80
2018-04-13T11:55:47.006Z,59.20
2018-04-13T11:58:14.490Z,59.40
2018-04-13T12:00:41.974Z,61.10
2018-04-13T12:03:09.500Z,59.10
2018-04-13T12:05:37.010Z,57.80
2018-04-13T12:08:04.550Z,56.80
2018-04-13T12:10:32.063Z,57.80
2018-04-13T12:12:59.561Z,56.60
2018-04-13T12:15:27.052Z,57.10
2018-04-13T12:17:54.611Z,56.50
2018-04-13T12:20:22.126Z,56.30
2018-04-13T12:22:49.632Z,56.80
2018-04-13T12:25:17.140Z,55.90
2018-04-13T12:27:44.650Z,57.00
2018-04-13T12:30:12.129Z,56.90
2018-04-13T12:32:39.623Z,55.30
2018-04-13T12:35:07.128Z,57.80
2018-04-13T12:37:34.643Z,55.80
2018-04-13T12:40:02.156Z,53.90
2018-04-13T12:42:29.652Z,55.50
2018-04-13T12:44:58.110Z,55.50
2018-04-13T12:47:25.611Z,55.90
2018-04-13T12:49:53.902Z,54.90
2018-04-13T12:52:21.449Z,54.90
2018-04-13T12:54:49.225Z,54.10
2018-04-13T12:57:16.480Z,53.40
2018-04-13T12:59:43.987Z,53.10
2018-04-13T13:02:11.506Z,52.60
2018-04-13T13:04:39.044Z,52.60
2018-04-13T13:07:06.672Z,51.50
2018-04-13T13:09:34.258Z,51.40
2018-04-13T13:12:02.503Z,51.90
2018-04-13T13:14:30.448Z,51.80
2018-04-13T13:16:58.792Z,54.00
2018-04-13T13:19:26.320Z,53.90
2018-04-13T13:21:54.601Z,51.20
2018-04-13T13:24:22.842Z,49.80
2018-04-13T13:26:50.343Z,49.70
2018-04-13T13:29:17.872Z,53.00
2018-04-13T13:31:45.370Z,52.40
2018-04-13T13:34:12.849Z,52.30
2018-04-13T13:36:40.666Z,51.00
2018-04-13T13:39:08.299Z,50.80
2018-04-13T13:41:35.854Z,52.50
2018-04-13T13:44:03.382Z,53.30
2018-04-13T13:46:31.032Z,52.10
2018-04-13T13:48:58.661Z,50.40
2018-04-13T13:51:26.919Z,51.60
2018-04-13T13:53:54.508Z,51.50
2018-04-13T13:56:22.877Z,52.50
2018-04-13T13:58:51.170Z,51.60
2018-04-13T14:01:18.663Z,51.60
2018-04-13T14:03:46.207Z,50.50
2018-04-13T14:06:13.695Z,50.60
2018-04-13T14:08:41.194Z,50.50
2018-04-13T14:11:08.715Z,49.70
2018-04-13T14:13:36.311Z,49.90
2018-04-13T14:16:03.983Z,49.30
2018-04-13T14:18:31.473Z,49.80
2018-04-13T14:20:58.987Z,49.10
2018-04-13T14:23:27.268Z,47.70
2018-04-13T14:25:55.545Z,48.50
2018-04-13T14:28:23.078Z,48.50
2018-04-13T14:30:50.556Z,49.00
2018-04-13T14:33:18.810Z,49.40
2018-04-13T14:35:46.321Z,49.40
2018-04-13T14:38:13.805Z,48.40
2018-04-13T14:40:41.326Z,49.20
2018-04-13T14:43:08.886Z,48.70
2018-04-13T14:45:36.397Z,48.40
2018-04-13T14:48:03.922Z,48.30
2018-04-13T14:50:31.412Z,48.40
2018-04-13T14:52:58.925Z,43.70
2018-04-13T14:55:26.432Z,44.00
2018-04-13T14:57:54.785Z,41.80
2018-04-13T15:00:22.397Z,41.70
2018-04-13T15:02:49.897Z,39.00
2018-04-13T15:05:17.396Z,40.50
2018-04-13T15:07:45.668Z,34.40
2018-04-13T15:10:13.967Z,33.40
2018-04-13T15:12:41.472Z,33.20
2018-04-13T15:15:08.982Z,31.40
2018-04-13T15:17:36.514Z,29.90
2018-04-13T15:20:04.792Z,28.10
2018-04-13T15:22:33.050Z,27.20
2018-04-13T15:25:00.535Z,27.20
2018-04-13T15:27:28.800Z,28.10
2018-04-13T15:29:57.142Z,27.70
2018-04-13T15:32:24.629Z,27.60
2018-04-13T15:34:52.931Z,28.40
2018-04-13T15:37:20.502Z,28.40
2018-04-13T15:39:48.019Z,30.00
2018-04-13T15:42:15.560Z,31.90
2018-04-13T15:44:43.110Z,33.30
2018-04-13T15:47:10.645Z,33.70
2018-04-13T15:49:38.145Z,35.10
2018-04-13T15:52:05.720Z,36.00
2018-04-13T15:54:33.965Z,37.80
2018-04-13T15:57:01.449Z,37.80
2018-04-13T15:59:29.740Z,37.10
2018-04-13T16:01:57.220Z,37.00
2018-04-13T16:04:24.705Z,36.80
2018-04-13T16:06:52.246Z,37.90
2018-04-13T16:09:19.753Z,41.20
2018-04-13T16:11:47.997Z,42.60
2018-04-13T16:14:15.566Z,42.60
2018-04-13T16:16:45.015Z,46.20
2018-04-13T16:19:12.504Z,46.90
2018-04-13T16:21:40.026Z,47.60
2018-04-13T16:24:07.603Z,48.90
2018-04-13T16:26:38.349Z,45.00
2018-04-13T16:29:05.858Z,47.20
2018-04-13T16:31:33.358Z,49.20
2018-04-13T16:34:01.722Z,49.50
2018-04-13T16:36:29.213Z,49.40
2018-04-13T16:38:56.795Z,50.40
2018-04-13T16:41:24.282Z,53.30
2018-04-13T16:43:51.784Z,53.60
2018-04-13T16:46:19.482Z,54.30
2018-04-13T16:48:47.745Z,54.30
2018-04-13T16:51:16.037Z,55.90
2018-04-13T16:53:44.317Z,57.20
2018-04-13T16:56:12.593Z,51.50
2018-04-13T16:58:40.938Z,47.50
2018-04-13T17:01:08.443Z,47.50
2018-04-13T17:03:35.923Z,50.90
2018-04-13T17:06:03.514Z,46.30
2018-04-13T17:08:31.037Z,47.10
2018-04-13T17:10:58.557Z,47.90
2018-04-13T17:13:26.792Z,51.20
2018-04-13T17:15:54.315Z,51.20
2018-04-13T17:18:21.966Z,53.10
2018-04-13T17:20:49.453Z,53.30
2018-04-13T17:23:16.943Z,53.10
2018-04-13T17:25:44.487Z,55.70
2018-04-13T17:28:11.969Z,55.70
2018-04-13T17:30:40.262Z,51.70
2018-04-13T17:33:07.841Z,51.70
2018-04-13T17:35:35.669Z,55.10
2018-04-13T17:38:05.065Z,55.50
2018-04-13T17:40:32.624Z,57.60
2018-04-13T17:43:00.904Z,63.00
2018-04-13T17:45:29.268Z,63.60
2018-04-13T17:47:56.797Z,63.60
2018-04-13T17:50:24.299Z,65.00
2018-04-13T17:52:51.816Z,63.30
2018-04-13T17:55:19.512Z,65.10
2018-04-13T17:57:47.043Z,66.70
2018-04-13T18:00:14.727Z,67.40
2018-04-13T18:02:45.550Z,67.40
2018-04-13T18:05:13.105Z,67.00
2018-04-13T18:07:40.655Z,67.10
2018-04-13T18:10:08.243Z,68.00
2018-04-13T18:12:35.975Z,69.30
2018-04-13T18:15:03.457Z,67.30
2018-04-13T18:17:31.028Z,67.80
2018-04-13T18:19:59.331Z,69.10
2018-04-13T18:22:26.828Z,69.10
2018-04-13T18:24:54.355Z,69.90
2018-04-13T18:27:21.838Z,72.30
2018-04-13T18:29:49.473Z,74.00
2018-04-13T18:32:16.981Z,75.10
2018-04-13T18:34:44.467Z,76.10
2018-04-13T18:37:12.806Z,76.30
2018-04-13T18:39:41.794Z,77.00
2018-04-13T18:42:09.329Z,76.90
2018-04-13T18:44:36.946Z,74.00
2018-04-13T18:47:05.248Z,76.00
2018-04-13T18:49:32.843Z,76.00
2018-04-13T18:52:00.326Z,77.00
2018-04-13T18:54:27.894Z,76.30
2018-04-13T18:56:56.230Z,78.70
2018-04-13T18:59:23.808Z,78.60
2018-04-13T19:01:51.363Z,78.90
2018-04-13T19:04:18.985Z,78.50
2018-04-13T19:06:46.479Z,79.40
2018-04-13T19:09:13.997Z,80.40
2018-04-13T19:11:41.556Z,81.50
2018-04-13T19:14:09.078Z,81.80
2018-04-13T19:16:36.594Z,81.80
2018-04-13T19:19:04.127Z,82.60
2018-04-13T19:21:31.626Z,82.80
2018-04-13T19:23:59.178Z,83.00
2018-04-13T19:26:26.664Z,83.90
2018-04-13T19:28:54.924Z,83.50
2018-04-13T19:31:22.447Z,84.20
2018-04-13T19:33:53.314Z,84.50
2018-04-13T19:36:20.818Z,84.60
2018-04-13T19:38:48.337Z,84.30
2018-04-13T19:41:15.821Z,84.80
2018-04-13T19:43:44.287Z,86.20
2018-04-13T19:46:12.075Z,86.20
2018-04-13T19:48:39.605Z,86.40
2018-04-13T19:51:07.913Z,87.70
2018-04-13T19:53:35.455Z,87.60
2018-04-13T19:56:03.735Z,87.00
2018-04-13T19:58:31.976Z,87.10
2018-04-13T20:00:59.480Z,87.10
2018-04-13T20:03:30.200Z,87.60
2018-04-13T20:05:57.693Z,88.10
2018-04-13T20:08:27.135Z,88.00
2018-04-13T20:10:54.689Z,87.90
2018-04-13T20:13:22.207Z,88.60
2018-04-13T20:15:49.821Z,89.30
2018-04-13T20:18:19.025Z,89.80
2018-04-13T20:20:47.304Z,90.30
2018-04-13T20:23:20.996Z,90.20
2018-04-13T20:25:49.338Z,90.40
2018-04-13T20:28:16.842Z,90.40
2018-04-13T20:30:45.133Z,90.70
2018-04-13T20:33:12.624Z,90.70
2018-04-13T20:35:40.132Z,91.00
2018-04-13T20:38:07.676Z,91.80
2018-04-13T20:40:35.937Z,92.40
2018-04-13T20:43:03.429Z,92.90
2018-04-13T20:45:31.796Z,92.70
2018-04-13T20:48:00.075Z,92.80
2018-04-13T20:50:28.342Z,93.70
2018-04-13T20:52:56.577Z,93.90
2018-04-13T20:55:24.094Z,93.90
2018-04-13T20:57:51.583Z,94.10
2018-04-13T21:00:19.115Z,94.60
2018-04-13T21:02:46.610Z,95.20
2018-04-13T21:05:14.088Z,95.50
2018-04-13T21:07:41.635Z,95.30
2018-04-13T21:10:09.117Z,95.30
2018-04-13T21:12:37.410Z,95.50
2018-04-13T21:15:05.715Z,95.90
2018-04-13T21:17:34.117Z,95.90
2018-04-13T21:20:01.603Z,95.80
2018-04-13T21:22:29.842Z,95.50
2018-04-13T21:24:57.343Z,95.50
2018-04-13T21:27:25.587Z,96.70
2018-04-13T21:29:53.090Z,96.70
2018-04-13T21:32:20.568Z,97.10
2018-04-13T21:34:50.350Z,97.20
2018-04-13T21:37:17.870Z,96.70
2018-04-13T21:39:45.352Z,96.80
2018-04-13T21:42:13.620Z,97.20
2018-04-13T21:44:41.093Z,97.20
2018-04-13T21:47:08.716Z,97.50
2018-04-13T21:49:36.251Z,98.20
2018-04-13T21:52:03.782Z,98.60
2018-04-13T21:54:31.292Z,98.40
2018-04-13T21:56:59.669Z,98.60
2018-04-13T21:59:27.168Z,98.60
2018-04-13T22:01:55.418Z,98.30
2018-04-13T22:04:22.927Z,98.30
2018-04-13T22:06:50.415Z,98.40
2018-04-13T22:09:19.489Z,98.60
2018-04-13T22:11:46.998Z,98.60
2018-04-13T22:14:27.181Z,98.20
2018-04-13T22:16:54.729Z,98.20
2018-04-13T22:19:22.229Z,98.80
2018-04-13T22:21:49.722Z,99.00
2018-04-13T22:24:17.967Z,98.80
2018-04-13T22:26:47.025Z,99.50
2018-04-13T22:29:14.537Z,99.50
2018-04-13T22:31:42.830Z,99.80
2018-04-13T22:34:11.091Z,99.70
2018-04-13T22:36:39.328Z,99.90
2018-04-13T22:39:06.817Z,99.90
2018-04-13T22:41:34.295Z,99.90
2018-04-13T22:44:01.785Z,99.90
2018-04-13T22:46:29.321Z,99.90
2018-04-13T22:48:56.826Z,99.90
2018-04-13T22:51:25.131Z,99.90
2018-04-13T22:53:54.301Z,99.90
2018-04-13T22:56:21.808Z,99.90
2018-04-13T22:58:49.327Z,99.90
2018-04-13T23:01:16.965Z,99.90
2018-04-13T23:03:44.486Z,99.90
2018-04-13T23:06:11.997Z,99.90
2018-04-13T23:08:39.481Z,99.90
2018-04-13T23:11:07.732Z,99.90
2018-04-13T23:13:35.229Z,99.90
2018-04-13T23:16:03.541Z,99.90
2018-04-13T23:18:31.038Z,99.90
2018-04-13T23:20:58.519Z,99.90
2018-04-13T23:23:26.833Z,99.90
2018-04-13T23:25:54.356Z,99.90
2018-04-13T23:28:21.967Z,99.90
2018-04-13T23:30:49.460Z,99.90
2018-04-13T23:33:17.750Z,99.90
2018-04-13T23:35:45.320Z,99.90
2018-04-13T23:38:12.881Z,99.90
2018-04-13T23:40:40.364Z,99.90
2018-04-13T23:43:07.889Z,99.90
2018-04-13T23:45:35.442Z,99.90
2018-04-13T23:48:02.951Z,99.90
2018-04-13T23:50:30.504Z,99.90
2018-04-13T23:52:57.999Z,99.90
2018-04-13T23:55:26.249Z,99.90
2018-04-13T23:57:53.790Z,99.90
